createdAt,value
2017-08-20T00:00:47.262Z,0.00
2017-08-20T00:01:35.419Z,0.00
2017-08-20T00:02:24.095Z,0.00
2017-08-20T00:03:19.672Z,0.00
2017-08-20T00:04:19.404Z,0.00
2017-08-20T00:05:14.241Z,0.00
2017-08-20T00:06:14.256Z,0.00
2017-08-20T00:07:14.335Z,0.00
2017-08-20T00:08:03.884Z,0.00
2017-08-20T00:08:52.653Z,0.00
2017-08-20T00:09:47.224Z,0.00
2017-08-20T00:10:47.839Z,0.00
2017-08-20T00:11:47.382Z,0.00
2017-08-20T00:12:41.988Z,0.00
2017-08-20T00:13:42.133Z,0.00
2017-08-20T00:14:36.548Z,0.00
2017-08-20T00:15:31.816Z,0.00
2017-08-20T00:16:33.159Z,0.00
2017-08-20T00:17:33.192Z,0.00
2017-08-20T00:18:33.269Z,0.00
2017-08-20T00:19:28.337Z,0.00
2017-08-20T00:20:22.138Z,0.00
2017-08-20T00:21:22.148Z,0.00
2017-08-20T00:22:17.425Z,0.00
2017-08-20T00:23:17.461Z,0.00
2017-08-20T00:24:11.224Z,0.00
2017-08-20T00:25:11.950Z,0.00
2017-08-20T00:26:13.490Z,0.00
2017-08-20T00:27:07.970Z,0.00
2017-08-20T00:28:02.632Z,0.00
2017-08-20T00:29:02.533Z,0.00
2017-08-20T00:29:57.091Z,0.00
2017-08-20T00:30:57.684Z,0.00
2017-08-20T00:31:51.378Z,0.00
2017-08-20T00:32:51.794Z,0.00
2017-08-20T00:33:46.305Z,0.00
2017-08-20T00:34:41.802Z,0.00
2017-08-20T00:35:41.685Z,0.00
2017-08-20T00:36:36.885Z,0.00
2017-08-20T00:37:31.829Z,0.00
2017-08-20T00:38:32.384Z,0.00
2017-08-20T00:39:27.069Z,0.00
2017-08-20T00:40:22.052Z,0.00
2017-08-20T00:41:22.447Z,0.00
2017-08-20T00:42:23.328Z,0.00
2017-08-20T00:43:23.072Z,0.00
2017-08-20T00:44:18.120Z,0.00
2017-08-20T00:45:12.073Z,0.00
2017-08-20T00:46:12.092Z,0.00
2017-08-20T00:47:07.068Z,0.00
2017-08-20T00:48:07.235Z,0.00
2017-08-20T00:49:01.185Z,0.00
2017-08-20T00:50:02.298Z,0.00
2017-08-20T00:51:03.226Z,0.00
2017-08-20T00:51:58.322Z,0.00
2017-08-20T00:52:52.461Z,0.00
2017-08-20T00:53:52.503Z,0.00
2017-08-20T00:54:46.452Z,0.00
2017-08-20T00:55:47.505Z,0.00
2017-08-20T00:56:41.541Z,0.00
2017-08-20T00:57:41.589Z,0.00
2017-08-20T00:58:41.626Z,0.00
2017-08-20T00:59:36.504Z,0.00
2017-08-20T01:00:30.637Z,0.00
2017-08-20T01:01:18.640Z,0.00
2017-08-20T01:02:13.604Z,0.00
2017-08-20T01:03:01.811Z,0.00
2017-08-20T01:04:02.700Z,0.00
2017-08-20T01:04:56.764Z,0.00
2017-08-20T01:05:50.824Z,0.00
2017-08-20T01:06:38.846Z,0.00
2017-08-20T01:07:27.887Z,0.00
2017-08-20T01:08:16.020Z,0.00
2017-08-20T01:09:05.023Z,0.00
2017-08-20T01:10:05.115Z,0.00
2017-08-20T01:11:06.044Z,0.00
2017-08-20T01:12:06.108Z,0.00
2017-08-20T01:13:06.172Z,0.00
2017-08-20T01:14:06.160Z,0.00
2017-08-20T01:15:06.310Z,0.00
2017-08-20T01:16:00.261Z,0.00
2017-08-20T01:17:00.220Z,0.00
2017-08-20T01:18:00.349Z,0.00
2017-08-20T01:18:55.323Z,0.00
2017-08-20T01:19:49.445Z,0.00
2017-08-20T01:20:49.152Z,0.00
2017-08-20T01:21:44.021Z,0.00
2017-08-20T01:22:44.592Z,0.00
2017-08-20T01:23:38.614Z,0.00
2017-08-20T01:24:38.051Z,0.00
2017-08-20T01:25:33.215Z,0.00
2017-08-20T01:26:28.174Z,0.00
2017-08-20T01:27:28.169Z,0.00
2017-08-20T01:28:23.817Z,0.00
2017-08-20T01:29:18.743Z,0.00
2017-08-20T01:30:19.805Z,0.00
2017-08-20T01:31:19.356Z,0.00
2017-08-20T01:32:19.345Z,0.00
2017-08-20T01:33:14.930Z,0.00
2017-08-20T01:34:14.794Z,0.00
2017-08-20T01:35:14.745Z,0.00
2017-08-20T01:36:08.856Z,0.00
2017-08-20T01:37:09.905Z,0.00
2017-08-20T01:38:10.145Z,0.00
2017-08-20T01:39:09.564Z,0.00
2017-08-20T01:40:04.635Z,0.00
2017-08-20T01:40:59.105Z,0.00
2017-08-20T01:41:59.563Z,0.00
2017-08-20T01:43:00.290Z,0.00
2017-08-20T01:43:54.772Z,0.00
2017-08-20T01:44:55.319Z,0.00
2017-08-20T01:45:54.697Z,0.00
2017-08-20T01:47:02.259Z,0.00
2017-08-20T01:48:02.388Z,0.00
2017-08-20T01:49:02.448Z,0.00
2017-08-20T01:49:56.345Z,0.00
2017-08-20T01:50:56.127Z,0.00
2017-08-20T01:51:51.623Z,0.00
2017-08-20T01:52:51.452Z,0.00
2017-08-20T01:53:51.332Z,0.00
2017-08-20T01:54:51.271Z,0.00
2017-08-20T01:55:45.324Z,0.00
2017-08-20T01:56:45.091Z,0.00
2017-08-20T01:57:40.076Z,0.00
2017-08-20T01:58:35.699Z,0.00
2017-08-20T01:59:36.374Z,0.00
2017-08-20T02:00:36.940Z,0.00
2017-08-20T02:01:36.512Z,0.00
2017-08-20T02:02:31.813Z,0.00
2017-08-20T02:03:25.839Z,0.00
2017-08-20T02:04:25.816Z,0.00
2017-08-20T02:05:20.884Z,0.00
2017-08-20T02:06:21.014Z,0.00
2017-08-20T02:07:15.005Z,0.00
2017-08-20T02:08:15.155Z,0.00
2017-08-20T02:09:09.895Z,0.00
2017-08-20T02:10:05.024Z,0.00
2017-08-20T02:11:04.595Z,0.00
2017-08-20T02:12:00.255Z,0.00
2017-08-20T02:12:55.131Z,0.00
2017-08-20T02:13:56.206Z,0.00
2017-08-20T02:14:57.205Z,0.00
2017-08-20T02:15:51.793Z,0.00
2017-08-20T02:16:45.804Z,0.00
2017-08-20T02:17:46.417Z,0.00
2017-08-20T02:18:46.525Z,0.00
2017-08-20T02:19:41.045Z,0.00
2017-08-20T02:20:35.521Z,0.00
2017-08-20T02:21:36.652Z,0.00
2017-08-20T02:22:36.177Z,0.00
2017-08-20T02:23:31.607Z,0.00
2017-08-20T02:24:31.527Z,0.00
2017-08-20T02:25:25.714Z,0.00
2017-08-20T02:26:25.129Z,0.00
2017-08-20T02:27:20.136Z,0.00
2017-08-20T02:28:15.759Z,0.00
2017-08-20T02:29:15.211Z,0.00
2017-08-20T02:30:10.486Z,0.00
2017-08-20T02:31:05.581Z,0.00
2017-08-20T02:32:05.384Z,0.00
2017-08-20T02:33:00.958Z,0.00
2017-08-20T02:33:55.429Z,0.00
2017-08-20T02:34:56.805Z,0.00
2017-08-20T02:35:52.145Z,0.00
2017-08-20T02:36:46.124Z,0.00
2017-08-20T02:37:46.948Z,0.00
2017-08-20T02:38:53.032Z,0.00
2017-08-20T02:39:46.980Z,0.00
2017-08-20T02:40:46.604Z,0.00
2017-08-20T02:41:47.197Z,0.00
2017-08-20T02:42:42.233Z,0.00
2017-08-20T02:43:42.320Z,0.00
2017-08-20T02:44:37.463Z,0.00
2017-08-20T02:45:31.957Z,0.00
2017-08-20T02:46:32.247Z,0.00
2017-08-20T02:47:26.398Z,0.00
2017-08-20T02:48:20.563Z,0.00
2017-08-20T02:49:21.506Z,0.00
2017-08-20T02:50:15.003Z,0.00
2017-08-20T02:51:04.558Z,0.00
2017-08-20T02:51:52.612Z,0.00
2017-08-20T02:52:41.569Z,0.00
2017-08-20T02:53:30.749Z,0.00
2017-08-20T02:54:18.345Z,0.00
2017-08-20T02:55:07.201Z,0.00
2017-08-20T02:55:55.813Z,0.00
2017-08-20T02:56:43.747Z,0.00
2017-08-20T02:57:32.734Z,0.00
2017-08-20T02:58:21.888Z,0.00
2017-08-20T02:59:10.880Z,0.00
2017-08-20T02:59:59.040Z,0.00
2017-08-20T03:00:46.880Z,0.00
2017-08-20T03:01:36.070Z,0.00
2017-08-20T03:02:24.097Z,0.00
2017-08-20T03:03:18.191Z,0.00
2017-08-20T03:04:07.023Z,0.00
2017-08-20T03:04:55.214Z,0.00
2017-08-20T03:05:42.700Z,0.00
2017-08-20T03:06:31.814Z,0.00
2017-08-20T03:07:27.373Z,0.00
2017-08-20T03:08:27.494Z,0.00
2017-08-20T03:09:22.562Z,0.00
2017-08-20T03:10:11.475Z,0.00
2017-08-20T03:11:00.429Z,0.00
2017-08-20T03:11:54.094Z,0.00
2017-08-20T03:12:43.493Z,0.00
2017-08-20T03:13:38.692Z,0.00
2017-08-20T03:14:26.442Z,0.00
2017-08-20T03:15:14.460Z,0.00
2017-08-20T03:16:02.187Z,0.00
2017-08-20T03:16:51.545Z,0.00
2017-08-20T03:17:40.656Z,0.00
2017-08-20T03:18:29.932Z,0.00
2017-08-20T03:19:17.821Z,0.00
2017-08-20T03:20:11.646Z,0.00
2017-08-20T03:21:05.893Z,0.00
2017-08-20T03:22:07.115Z,0.00
2017-08-20T03:23:01.037Z,0.00
2017-08-20T03:23:55.069Z,0.00
2017-08-20T03:24:49.010Z,0.00
2017-08-20T03:25:49.025Z,0.00
2017-08-20T03:26:43.162Z,0.00
2017-08-20T03:27:37.233Z,0.00
2017-08-20T03:28:38.262Z,0.00
2017-08-20T03:29:27.378Z,0.00
2017-08-20T03:30:15.361Z,0.00
2017-08-20T03:31:15.365Z,0.00
2017-08-20T03:32:09.328Z,0.00
2017-08-20T03:33:15.466Z,0.00
2017-08-20T03:34:10.544Z,0.00
2017-08-20T03:35:05.098Z,0.00
2017-08-20T03:35:59.426Z,0.00
2017-08-20T03:36:53.497Z,0.00
2017-08-20T03:37:48.531Z,0.00
2017-08-20T03:38:42.646Z,0.00
2017-08-20T03:39:37.438Z,0.00
2017-08-20T03:40:25.435Z,0.00
2017-08-20T03:41:19.525Z,0.00
2017-08-20T03:42:19.548Z,0.00
2017-08-20T03:43:14.881Z,0.00
2017-08-20T03:44:09.924Z,0.00
2017-08-20T03:45:04.894Z,0.00
2017-08-20T03:46:06.052Z,0.00
2017-08-20T03:46:54.006Z,0.00
2017-08-20T03:47:41.987Z,0.00
2017-08-20T03:48:36.177Z,0.00
2017-08-20T03:49:36.083Z,0.00
2017-08-20T03:50:31.125Z,0.00
2017-08-20T03:51:31.105Z,0.00
2017-08-20T03:52:26.195Z,0.00
2017-08-20T03:53:21.204Z,0.00
2017-08-20T03:54:15.127Z,0.00
2017-08-20T03:55:09.224Z,0.00
2017-08-20T03:56:04.263Z,0.00
2017-08-20T03:56:53.254Z,0.00
2017-08-20T03:57:47.495Z,0.00
2017-08-20T03:58:36.495Z,0.00
2017-08-20T03:59:30.459Z,0.00
2017-08-20T04:00:24.546Z,0.00
2017-08-20T04:01:24.495Z,0.00
2017-08-20T04:02:13.624Z,0.00
2017-08-20T04:03:02.696Z,0.00
2017-08-20T04:03:51.670Z,0.00
2017-08-20T04:04:39.793Z,0.00
2017-08-20T04:05:39.765Z,0.00
2017-08-20T04:06:33.743Z,0.00
2017-08-20T04:07:27.802Z,0.00
2017-08-20T04:08:27.777Z,0.00
2017-08-20T04:09:21.902Z,0.00
2017-08-20T04:10:10.983Z,0.00
2017-08-20T04:11:11.984Z,0.00
2017-08-20T04:12:06.036Z,0.00
2017-08-20T04:13:06.275Z,0.00
2017-08-20T04:14:01.280Z,0.00
2017-08-20T04:15:01.110Z,0.00
2017-08-20T04:16:02.189Z,0.00
2017-08-20T04:17:03.152Z,0.00
2017-08-20T04:17:57.213Z,0.00
2017-08-20T04:18:51.282Z,0.00
2017-08-20T04:19:51.495Z,0.00
2017-08-20T04:20:40.384Z,0.00
2017-08-20T04:21:28.362Z,0.00
2017-08-20T04:22:34.413Z,0.00
2017-08-20T04:23:29.405Z,0.00
2017-08-20T04:24:24.433Z,0.00
2017-08-20T04:25:24.448Z,0.00
2017-08-20T04:26:18.630Z,0.00
2017-08-20T04:27:12.556Z,0.00
2017-08-20T04:28:07.718Z,0.00
2017-08-20T04:29:07.652Z,0.00
2017-08-20T04:30:02.756Z,0.00
2017-08-20T04:30:51.875Z,0.01
2017-08-20T04:31:39.800Z,0.01
2017-08-20T04:32:33.766Z,0.01
2017-08-20T04:33:21.888Z,0.01
2017-08-20T04:34:15.996Z,0.01
2017-08-20T04:35:16.046Z,0.01
2017-08-20T04:36:10.995Z,0.01
2017-08-20T04:37:06.000Z,0.01
2017-08-20T04:38:06.184Z,0.01
2017-08-20T04:39:01.000Z,0.01
2017-08-20T04:39:55.067Z,0.01
2017-08-20T04:40:49.127Z,0.01
2017-08-20T04:41:44.215Z,0.01
2017-08-20T04:42:33.241Z,0.02
2017-08-20T04:43:27.303Z,0.02
2017-08-20T04:44:28.362Z,0.02
2017-08-20T04:45:22.368Z,0.02
2017-08-20T04:46:16.416Z,0.02
2017-08-20T04:47:16.559Z,0.02
2017-08-20T04:48:11.354Z,0.02
2017-08-20T04:49:05.428Z,0.02
2017-08-20T04:50:05.553Z,0.02
2017-08-20T04:50:59.497Z,0.02
2017-08-20T04:51:47.515Z,0.02
2017-08-20T04:52:41.568Z,0.02
2017-08-20T04:53:41.696Z,0.03
2017-08-20T04:54:30.716Z,0.03
2017-08-20T04:55:30.747Z,0.03
2017-08-20T04:56:30.695Z,0.03
2017-08-20T04:57:31.016Z,0.03
2017-08-20T04:58:30.819Z,0.03
2017-08-20T04:59:30.860Z,0.03
2017-08-20T05:00:25.808Z,0.03
2017-08-20T05:01:25.943Z,0.03
2017-08-20T05:02:19.931Z,0.03
2017-08-20T05:03:08.949Z,0.03
2017-08-20T05:04:03.057Z,0.03
2017-08-20T05:04:52.104Z,0.03
2017-08-20T05:05:46.170Z,0.04
2017-08-20T05:06:35.116Z,0.04
2017-08-20T05:07:29.099Z,0.04
2017-08-20T05:08:23.269Z,0.04
2017-08-20T05:09:18.244Z,0.04
2017-08-20T05:10:18.444Z,0.04
2017-08-20T05:11:13.411Z,0.04
2017-08-20T05:12:07.329Z,0.04
2017-08-20T05:13:07.523Z,0.04
2017-08-20T05:13:56.323Z,0.04
2017-08-20T05:14:45.468Z,0.05
2017-08-20T05:15:45.557Z,0.05
2017-08-20T05:16:33.530Z,0.05
2017-08-20T05:17:27.566Z,0.05
2017-08-20T05:18:27.597Z,0.06
2017-08-20T05:19:21.704Z,0.06
2017-08-20T05:20:15.614Z,0.06
2017-08-20T05:21:04.196Z,0.06
2017-08-20T05:21:58.200Z,0.06
2017-08-20T05:22:52.666Z,0.06
2017-08-20T05:23:47.624Z,0.06
2017-08-20T05:24:36.690Z,0.06
2017-08-20T05:25:24.549Z,0.06
2017-08-20T05:26:13.435Z,0.06
2017-08-20T05:27:13.438Z,0.06
2017-08-20T05:28:13.541Z,0.07
2017-08-20T05:29:07.666Z,0.07
2017-08-20T05:30:07.925Z,0.07
2017-08-20T05:31:01.595Z,0.07
2017-08-20T05:32:02.238Z,0.08
2017-08-20T05:32:56.832Z,0.08
2017-08-20T05:33:57.398Z,0.08
2017-08-20T05:34:57.258Z,0.09
2017-08-20T05:35:52.337Z,0.09
2017-08-20T05:36:47.431Z,0.09
2017-08-20T05:37:42.281Z,0.09
2017-08-20T05:38:41.915Z,0.09
2017-08-20T05:39:36.602Z,0.09
2017-08-20T05:40:25.603Z,0.09
2017-08-20T05:41:25.653Z,0.08
2017-08-20T05:42:20.592Z,0.08
2017-08-20T05:43:15.670Z,0.07
2017-08-20T05:44:09.769Z,0.07
2017-08-20T05:45:04.734Z,0.07
2017-08-20T05:46:05.968Z,0.06
2017-08-20T05:46:59.844Z,0.06
2017-08-20T05:47:47.991Z,0.07
2017-08-20T05:48:47.907Z,0.07
2017-08-20T05:49:41.953Z,0.07
2017-08-20T05:50:37.019Z,0.07
2017-08-20T05:51:31.115Z,0.07
2017-08-20T05:52:26.088Z,0.08
2017-08-20T05:53:26.301Z,0.08
2017-08-20T05:54:15.184Z,0.08
2017-08-20T05:55:09.301Z,0.09
2017-08-20T05:56:09.282Z,0.09
2017-08-20T05:57:04.315Z,0.09
2017-08-20T05:57:59.359Z,0.09
2017-08-20T05:58:53.340Z,0.09
2017-08-20T05:59:53.454Z,0.09
2017-08-20T06:00:42.502Z,0.09
2017-08-20T06:01:30.571Z,0.10
2017-08-20T06:02:24.561Z,0.11
2017-08-20T06:03:18.613Z,0.11
2017-08-20T06:04:13.663Z,0.12
2017-08-20T06:05:14.753Z,0.13
2017-08-20T06:06:15.758Z,0.13
2017-08-20T06:07:04.797Z,0.14
2017-08-20T06:07:53.779Z,0.14
2017-08-20T06:08:48.908Z,0.15
2017-08-20T06:09:42.840Z,0.16
2017-08-20T06:10:42.897Z,0.17
2017-08-20T06:11:31.939Z,0.18
2017-08-20T06:12:26.076Z,0.18
2017-08-20T06:13:14.074Z,0.17
2017-08-20T06:14:02.234Z,0.17
2017-08-20T06:14:57.217Z,0.17
2017-08-20T06:15:52.141Z,0.16
2017-08-20T06:16:41.096Z,0.16
2017-08-20T06:17:35.368Z,0.15
2017-08-20T06:18:29.233Z,0.14
2017-08-20T06:19:23.344Z,0.14
2017-08-20T06:20:17.612Z,0.14
2017-08-20T06:21:11.332Z,0.13
2017-08-20T06:22:04.971Z,0.13
2017-08-20T06:22:54.431Z,0.13
2017-08-20T06:23:42.439Z,0.13
2017-08-20T06:24:36.593Z,0.13
2017-08-20T06:25:37.773Z,0.13
2017-08-20T06:26:37.736Z,0.13
2017-08-20T06:27:32.818Z,0.13
2017-08-20T06:28:32.776Z,0.14
2017-08-20T06:29:32.854Z,0.14
2017-08-20T06:30:26.863Z,0.14
2017-08-20T06:31:21.006Z,0.14
2017-08-20T06:32:09.938Z,0.14
2017-08-20T06:32:57.981Z,0.14
2017-08-20T06:33:47.104Z,0.15
2017-08-20T06:34:42.059Z,0.15
2017-08-20T06:35:36.083Z,0.15
2017-08-20T06:36:24.233Z,0.16
2017-08-20T06:37:19.310Z,0.16
2017-08-20T06:38:13.166Z,0.16
2017-08-20T06:39:08.163Z,0.17
2017-08-20T06:40:03.333Z,0.18
2017-08-20T06:40:58.332Z,0.18
2017-08-20T06:41:58.537Z,0.19
2017-08-20T06:42:58.440Z,0.20
2017-08-20T06:43:53.475Z,0.20
2017-08-20T06:44:48.566Z,0.21
2017-08-20T06:45:43.606Z,0.21
2017-08-20T06:46:37.601Z,0.25
2017-08-20T06:47:37.683Z,0.19
2017-08-20T06:48:37.755Z,0.18
2017-08-20T06:49:31.635Z,0.18
2017-08-20T06:50:25.740Z,0.18
2017-08-20T06:51:20.795Z,0.18
2017-08-20T06:52:14.860Z,0.19
2017-08-20T06:53:08.903Z,0.19
2017-08-20T06:54:08.749Z,0.19
2017-08-20T06:55:02.904Z,0.20
2017-08-20T06:56:03.097Z,0.22
2017-08-20T06:56:58.057Z,0.26
2017-08-20T06:57:58.071Z,0.26
2017-08-20T06:58:53.228Z,0.26
2017-08-20T06:59:47.220Z,0.26
2017-08-20T07:00:53.249Z,0.26
2017-08-20T07:01:47.174Z,0.23
2017-08-20T07:02:41.272Z,0.22
2017-08-20T07:03:30.440Z,0.20
2017-08-20T07:04:24.397Z,0.21
2017-08-20T07:05:30.354Z,0.20
2017-08-20T07:06:18.370Z,0.20
2017-08-20T07:07:19.490Z,0.21
2017-08-20T07:08:13.520Z,0.26
2017-08-20T07:09:13.486Z,0.26
2017-08-20T07:10:13.654Z,0.27
2017-08-20T07:11:08.651Z,0.23
2017-08-20T07:11:56.741Z,0.24
2017-08-20T07:12:56.789Z,0.22
2017-08-20T07:13:51.777Z,0.23
2017-08-20T07:14:51.850Z,0.27
2017-08-20T07:15:47.067Z,0.27
2017-08-20T07:16:40.948Z,0.33
2017-08-20T07:17:35.883Z,0.31
2017-08-20T07:18:36.987Z,0.31
2017-08-20T07:19:32.079Z,0.32
2017-08-20T07:20:27.134Z,0.33
2017-08-20T07:21:21.221Z,0.23
2017-08-20T07:22:22.162Z,0.29
2017-08-20T07:23:22.287Z,0.31
2017-08-20T07:24:11.296Z,0.33
2017-08-20T07:25:11.210Z,0.71
2017-08-20T07:26:00.283Z,0.98
2017-08-20T07:26:54.371Z,0.77
2017-08-20T07:27:54.473Z,0.33
2017-08-20T07:28:48.695Z,0.33
2017-08-20T07:29:48.675Z,0.71
2017-08-20T07:30:48.599Z,0.30
2017-08-20T07:31:43.722Z,0.62
2017-08-20T07:32:37.710Z,0.30
2017-08-20T07:33:32.754Z,0.28
2017-08-20T07:34:21.892Z,0.54
2017-08-20T07:35:16.910Z,0.61
2017-08-20T07:36:16.944Z,0.38
2017-08-20T07:37:11.915Z,0.56
2017-08-20T07:38:01.019Z,0.44
2017-08-20T07:38:55.053Z,0.33
2017-08-20T07:39:56.057Z,0.36
2017-08-20T07:40:57.262Z,0.57
2017-08-20T07:41:51.237Z,0.36
2017-08-20T07:42:45.330Z,0.39
2017-08-20T07:43:40.439Z,0.59
2017-08-20T07:44:29.463Z,0.60
2017-08-20T07:45:24.379Z,0.62
2017-08-20T07:46:18.419Z,0.57
2017-08-20T07:47:13.553Z,0.25
2017-08-20T07:48:14.563Z,0.22
2017-08-20T07:49:08.699Z,0.26
2017-08-20T07:50:02.542Z,0.22
2017-08-20T07:50:57.810Z,0.22
2017-08-20T07:51:51.787Z,0.23
2017-08-20T07:52:45.852Z,0.30
2017-08-20T07:53:33.783Z,0.56
2017-08-20T07:54:22.937Z,0.58
2017-08-20T07:55:16.984Z,0.27
2017-08-20T07:56:12.151Z,0.29
2017-08-20T07:57:07.130Z,0.58
2017-08-20T07:57:56.165Z,0.67
2017-08-20T07:58:50.184Z,0.64
2017-08-20T07:59:45.327Z,0.48
2017-08-20T08:00:40.342Z,0.25
2017-08-20T08:01:41.398Z,0.37
2017-08-20T08:02:36.497Z,0.58
2017-08-20T08:03:31.557Z,0.27
2017-08-20T08:04:25.374Z,0.27
2017-08-20T08:05:20.571Z,0.24
2017-08-20T08:06:14.594Z,0.29
2017-08-20T08:07:14.656Z,0.63
2017-08-20T08:08:02.750Z,0.65
2017-08-20T08:08:56.671Z,0.62
2017-08-20T08:09:56.802Z,0.67
2017-08-20T08:10:51.998Z,0.64
2017-08-20T08:11:45.953Z,0.64
2017-08-20T08:12:40.907Z,0.63
2017-08-20T08:13:40.942Z,0.63
2017-08-20T08:14:41.074Z,0.63
2017-08-20T08:15:30.177Z,0.64
2017-08-20T08:16:24.244Z,0.64
2017-08-20T08:17:12.312Z,0.64
2017-08-20T08:18:07.330Z,0.65
2017-08-20T08:18:56.381Z,0.58
2017-08-20T08:19:51.394Z,0.68
2017-08-20T08:20:40.420Z,0.52
2017-08-20T08:21:35.497Z,0.30
2017-08-20T08:22:29.502Z,0.32
2017-08-20T08:23:23.621Z,0.27
2017-08-20T08:24:18.775Z,0.54
2017-08-20T08:25:18.773Z,0.22
2017-08-20T08:26:07.797Z,0.22
2017-08-20T08:26:56.814Z,0.69
2017-08-20T08:27:50.982Z,0.56
2017-08-20T08:28:51.027Z,0.70
2017-08-20T08:29:39.084Z,0.47
2017-08-20T08:30:34.106Z,0.58
2017-08-20T08:31:29.156Z,0.70
2017-08-20T08:32:23.143Z,0.68
2017-08-20T08:33:17.349Z,0.65
2017-08-20T08:34:11.272Z,0.68
2017-08-20T08:35:05.275Z,0.70
2017-08-20T08:36:05.362Z,0.70
2017-08-20T08:37:00.404Z,0.70
2017-08-20T08:38:00.462Z,0.74
2017-08-20T08:38:55.601Z,0.29
2017-08-20T08:39:49.644Z,0.60
2017-08-20T08:40:44.618Z,0.75
2017-08-20T08:41:39.732Z,0.77
2017-08-20T08:42:33.877Z,0.76
2017-08-20T08:43:22.750Z,0.76
2017-08-20T08:44:11.023Z,0.77
2017-08-20T08:44:58.912Z,0.77
2017-08-20T08:45:59.074Z,0.32
2017-08-20T08:46:48.026Z,0.33
2017-08-20T08:47:48.126Z,0.71
2017-08-20T08:48:42.171Z,0.80
2017-08-20T08:49:36.375Z,0.28
2017-08-20T08:50:30.336Z,0.26
2017-08-20T08:51:30.357Z,0.75
2017-08-20T08:52:24.342Z,0.75
2017-08-20T08:53:18.547Z,0.77
2017-08-20T08:54:13.477Z,0.78
2017-08-20T08:55:01.593Z,0.79
2017-08-20T08:55:56.637Z,0.81
2017-08-20T08:56:56.732Z,0.82
2017-08-20T08:57:50.754Z,0.83
2017-08-20T08:58:44.800Z,0.65
2017-08-20T08:59:38.857Z,0.82
2017-08-20T09:00:32.932Z,0.85
2017-08-20T09:01:21.977Z,0.86
2017-08-20T09:02:16.101Z,0.40
2017-08-20T09:03:16.260Z,0.28
2017-08-20T09:04:10.221Z,0.32
2017-08-20T09:05:10.158Z,0.24
2017-08-20T09:06:04.303Z,0.20
2017-08-20T09:07:05.261Z,0.19
2017-08-20T09:07:59.376Z,0.19
2017-08-20T09:08:53.452Z,0.22
2017-08-20T09:09:47.493Z,0.76
2017-08-20T09:10:41.569Z,0.29
2017-08-20T09:11:35.635Z,0.32
2017-08-20T09:12:24.680Z,0.27
2017-08-20T09:13:12.932Z,0.51
2017-08-20T09:14:06.782Z,0.25
2017-08-20T09:15:00.855Z,0.75
2017-08-20T09:15:48.922Z,0.76
2017-08-20T09:16:48.999Z,0.28
2017-08-20T09:17:42.996Z,0.57
2017-08-20T09:18:37.073Z,0.82
2017-08-20T09:19:31.160Z,0.83
2017-08-20T09:20:31.164Z,0.83
2017-08-20T09:21:26.244Z,0.85
2017-08-20T09:22:15.256Z,0.38
2017-08-20T09:23:10.415Z,0.31
2017-08-20T09:24:04.454Z,0.29
2017-08-20T09:24:59.484Z,0.74
2017-08-20T09:25:47.516Z,0.85
2017-08-20T09:26:42.707Z,0.55
2017-08-20T09:27:42.578Z,0.26
2017-08-20T09:28:31.721Z,0.82
2017-08-20T09:29:25.576Z,0.87
2017-08-20T09:30:14.772Z,0.34
2017-08-20T09:31:08.838Z,0.37
2017-08-20T09:31:57.934Z,0.91
2017-08-20T09:32:51.940Z,0.90
2017-08-20T09:33:52.001Z,0.84
2017-08-20T09:34:41.090Z,0.63
2017-08-20T09:35:35.128Z,0.86
2017-08-20T09:36:35.180Z,0.41
2017-08-20T09:37:35.241Z,0.37
2017-08-20T09:38:29.275Z,0.40
2017-08-20T09:39:24.345Z,0.37
2017-08-20T09:40:12.300Z,0.76
2017-08-20T09:41:06.478Z,0.88
2017-08-20T09:42:01.422Z,0.87
2017-08-20T09:42:49.505Z,0.31
2017-08-20T09:43:50.654Z,0.34
2017-08-20T09:44:51.669Z,0.32
2017-08-20T09:45:45.692Z,0.33
2017-08-20T09:46:45.797Z,0.31
2017-08-20T09:47:40.861Z,0.31
2017-08-20T09:48:34.980Z,0.29
2017-08-20T09:49:29.039Z,0.27
2017-08-20T09:50:23.062Z,0.26
2017-08-20T09:51:17.053Z,0.28
2017-08-20T09:52:11.107Z,0.28
2017-08-20T09:52:59.230Z,0.29
2017-08-20T09:53:59.181Z,0.29
2017-08-20T09:54:47.318Z,0.33
2017-08-20T09:55:36.324Z,0.88
2017-08-20T09:56:31.312Z,0.43
2017-08-20T09:57:26.445Z,0.92
2017-08-20T09:58:15.531Z,0.88
2017-08-20T09:59:10.684Z,0.92
2017-08-20T09:59:59.636Z,0.50
2017-08-20T10:00:54.664Z,0.89
2017-08-20T10:01:48.682Z,0.33
2017-08-20T10:02:37.773Z,0.32
2017-08-20T10:03:26.697Z,0.31
2017-08-20T10:04:14.974Z,0.34
2017-08-20T10:05:08.909Z,0.40
2017-08-20T10:06:04.051Z,1.03
2017-08-20T10:06:59.007Z,0.99
2017-08-20T10:07:53.185Z,0.97
2017-08-20T10:08:53.124Z,0.88
2017-08-20T10:09:42.193Z,0.34
2017-08-20T10:10:36.288Z,0.31
2017-08-20T10:11:31.303Z,0.26
2017-08-20T10:12:26.382Z,0.20
2017-08-20T10:13:20.485Z,0.17
2017-08-20T10:14:09.497Z,0.17
2017-08-20T10:15:04.669Z,0.20
2017-08-20T10:16:04.591Z,0.22
2017-08-20T10:16:59.715Z,0.24
2017-08-20T10:17:54.761Z,0.26
2017-08-20T10:18:48.677Z,0.27
2017-08-20T10:19:48.742Z,0.27
2017-08-20T10:20:42.864Z,0.28
2017-08-20T10:21:43.945Z,0.28
2017-08-20T10:22:38.061Z,0.28
2017-08-20T10:23:32.024Z,0.27
2017-08-20T10:24:32.065Z,0.28
2017-08-20T10:25:21.064Z,0.28
2017-08-20T10:26:10.139Z,0.29
2017-08-20T10:26:58.190Z,0.23
2017-08-20T10:27:53.304Z,0.21
2017-08-20T10:28:53.317Z,0.19
2017-08-20T10:29:42.397Z,0.19
2017-08-20T10:30:42.481Z,0.20
2017-08-20T10:31:42.601Z,0.19
2017-08-20T10:32:42.565Z,0.20
2017-08-20T10:33:37.600Z,0.20
2017-08-20T10:34:26.732Z,0.19
2017-08-20T10:35:21.750Z,0.20
2017-08-20T10:36:10.779Z,0.22
2017-08-20T10:37:04.678Z,0.25
2017-08-20T10:37:53.924Z,0.26
2017-08-20T10:38:48.972Z,0.28
2017-08-20T10:39:42.923Z,0.30
2017-08-20T10:40:44.009Z,0.33
2017-08-20T10:41:44.158Z,0.34
2017-08-20T10:42:39.141Z,0.36
2017-08-20T10:43:28.125Z,0.36
2017-08-20T10:44:28.168Z,0.34
2017-08-20T10:45:28.214Z,0.30
2017-08-20T10:46:22.220Z,0.32
2017-08-20T10:47:11.261Z,0.27
2017-08-20T10:48:00.314Z,0.24
2017-08-20T10:48:49.393Z,0.22
2017-08-20T10:49:43.403Z,0.30
2017-08-20T10:50:37.523Z,0.37
2017-08-20T10:51:31.526Z,0.34
2017-08-20T10:52:26.779Z,0.31
2017-08-20T10:53:27.718Z,0.29
2017-08-20T10:54:16.762Z,0.28
2017-08-20T10:55:10.803Z,0.28
2017-08-20T10:56:04.837Z,0.29
2017-08-20T10:57:04.850Z,0.30
2017-08-20T10:57:58.893Z,0.36
2017-08-20T10:58:54.028Z,0.36
2017-08-20T10:59:54.025Z,0.34
2017-08-20T11:00:48.105Z,0.35
2017-08-20T11:01:42.102Z,0.37
2017-08-20T11:02:30.161Z,0.41
2017-08-20T11:03:24.181Z,0.37
2017-08-20T11:04:13.226Z,0.34
2017-08-20T11:05:07.346Z,0.40
2017-08-20T11:06:02.436Z,0.42
2017-08-20T11:07:02.463Z,0.55
2017-08-20T11:07:51.477Z,0.47
2017-08-20T11:08:45.491Z,0.44
2017-08-20T11:09:39.567Z,0.59
2017-08-20T11:10:33.640Z,0.88
2017-08-20T11:11:27.773Z,0.76
2017-08-20T11:12:21.859Z,0.38
2017-08-20T11:13:15.811Z,0.77
2017-08-20T11:14:10.821Z,0.88
2017-08-20T11:14:59.869Z,0.87
2017-08-20T11:15:47.933Z,0.89
2017-08-20T11:16:41.996Z,0.88
2017-08-20T11:17:31.019Z,0.37
2017-08-20T11:18:19.083Z,0.68
2017-08-20T11:19:08.113Z,0.80
2017-08-20T11:20:03.271Z,0.82
2017-08-20T11:20:52.267Z,0.77
2017-08-20T11:21:47.471Z,0.84
2017-08-20T11:22:41.419Z,0.80
2017-08-20T11:23:35.385Z,0.79
2017-08-20T11:24:29.574Z,0.37
2017-08-20T11:25:18.538Z,0.46
2017-08-20T11:26:18.545Z,0.77
2017-08-20T11:27:13.664Z,0.41
2017-08-20T11:28:07.764Z,0.41
2017-08-20T11:29:01.720Z,0.29
2017-08-20T11:30:02.009Z,0.22
2017-08-20T11:30:55.895Z,0.20
2017-08-20T11:31:49.911Z,0.20
2017-08-20T11:32:49.956Z,0.22
2017-08-20T11:33:45.049Z,0.23
2017-08-20T11:34:39.116Z,0.25
2017-08-20T11:35:40.112Z,0.27
2017-08-20T11:36:34.216Z,0.29
2017-08-20T11:37:28.286Z,0.29
2017-08-20T11:38:23.380Z,0.31
2017-08-20T11:39:23.295Z,0.31
2017-08-20T11:40:17.464Z,0.37
2017-08-20T11:41:11.515Z,0.82
2017-08-20T11:42:06.635Z,0.43
2017-08-20T11:42:55.578Z,0.46
2017-08-20T11:43:55.683Z,0.43
2017-08-20T11:44:49.668Z,0.37
2017-08-20T11:45:49.841Z,0.69
2017-08-20T11:46:44.831Z,0.81
2017-08-20T11:47:32.885Z,0.82
2017-08-20T11:48:33.866Z,0.81
2017-08-20T11:49:28.041Z,0.34
2017-08-20T11:50:16.985Z,0.83
2017-08-20T11:51:12.073Z,0.83
2017-08-20T11:52:06.141Z,0.58
2017-08-20T11:52:55.162Z,0.85
2017-08-20T11:53:44.242Z,0.84
2017-08-20T11:54:38.313Z,0.36
2017-08-20T11:55:32.350Z,0.83
2017-08-20T11:56:26.394Z,0.83
2017-08-20T11:57:26.509Z,0.82
2017-08-20T11:58:20.551Z,0.80
2017-08-20T11:59:20.640Z,0.81
2017-08-20T12:00:08.619Z,0.82
2017-08-20T12:01:08.618Z,0.85
2017-08-20T12:02:02.814Z,0.72
2017-08-20T12:02:57.845Z,0.69
2017-08-20T12:03:52.889Z,0.49
2017-08-20T12:04:53.913Z,0.51
2017-08-20T12:05:47.935Z,0.58
2017-08-20T12:06:42.024Z,0.41
2017-08-20T12:07:42.141Z,0.45
2017-08-20T12:08:31.150Z,0.80
2017-08-20T12:09:26.256Z,0.62
2017-08-20T12:10:26.249Z,0.63
2017-08-20T12:11:20.294Z,0.53
2017-08-20T12:12:14.344Z,0.58